sensor_id;sensor_type;location;lat;lon;timestamp;pressure;altitude;pressure_sealevel;temperature;humidity
19108;BME280;9686;48.832;9.126;2022-08-24T00:00:15;98259.31;;;19.89;100.00
19108;BME280;9686;48.832;9.126;2022-08-24T00:02:41;98261.09;;;19.88;100.00
19108;BME280;9686;48.832;9.126;2022-08-24T00:05:07;98266.72;;;19.81;100.00
19108;BME280;9686;48.832;9.126;2022-08-24T00:07:33;98267.59;;;19.81;100.00
19108;BME280;9686;48.832;9.126;2022-08-24T00:09:59;98264.81;;;19.84;100.00
19108;BME280;9686;48.832;9.126;2022-08-24T00:12:26;98267.03;;;19.73;100.00
19108;BME280;9686;48.832;9.126;2022-08-24T00:14:52;98261.94;;;19.68;100.00
19108;BME280;9686;48.832;9.126;2022-08-24T00:17:18;98258.38;;;19.69;100.00
19108;BME280;9686;48.832;9.126;2022-08-24T00:19:45;98263.72;;;19.68;100.00
19108;BME280;9686;48.832;9.126;2022-08-24T00:22:10;98258.75;;;19.60;100.00
19108;BME280;9686;48.832;9.126;2022-08-24T00:24:36;98255.59;;;19.51;100.00
19108;BME280;9686;48.832;9.126;2022-08-24T00:27:01;98248.69;;;19.47;100.00
19108;BME280;9686;48.832;9.126;2022-08-24T00:29:26;98254.97;;;19.44;100.00
19108;BME280;9686;48.832;9.126;2022-08-24T00:31:52;98253.47;;;19.38;100.00
19108;BME280;9686;48.832;9.126;2022-08-24T00:34:17;98254.38;;;19.37;100.00
19108;BME280;9686;48.832;9.126;2022-08-24T00:36:43;98257.94;;;19.36;100.00
19108;BME280;9686;48.832;9.126;2022-08-24T00:39:10;98254.56;;;19.33;100.00
19108;BME280;9686;48.832;9.126;2022-08-24T00:41:39;98258.00;;;19.35;100.00
19108;BME280;9686;48.832;9.126;2022-08-24T00:44:06;98257.28;;;19.31;100.00
19108;BME280;9686;48.832;9.126;2022-08-24T00:46:52;98256.56;;;19.28;100.00
19108;BME280;9686;48.832;9.126;2022-08-24T00:49:40;98258.34;;;19.27;100.00
19108;BME280;9686;48.832;9.126;2022-08-24T00:52:13;98263.34;;;19.12;100.00
19108;BME280;9686;48.832;9.126;2022-08-24T00:54:46;98263.22;;;19.15;100.00
19108;BME280;9686;48.832;9.126;2022-08-24T00:57:14;98253.84;;;19.07;100.00
19108;BME280;9686;48.832;9.126;2022-08-24T00:59:46;98259.31;;;19.03;100.00
19108;BME280;9686;48.832;9.126;2022-08-24T01:02:16;98256.72;;;19.01;100.00
19108;BME280;9686;48.832;9.126;2022-08-24T01:04:51;98261.31;;;18.96;100.00
19108;BME280;9686;48.832;9.126;2022-08-24T01:07:17;98260.69;;;18.90;100.00
19108;BME280;9686;48.832;9.126;2022-08-24T01:09:43;98261.84;;;18.83;100.00
19108;BME280;9686;48.832;9.126;2022-08-24T01:12:09;98259.22;;;18.83;100.00
19108;BME280;9686;48.832;9.126;2022-08-24T01:14:36;98261.66;;;18.87;100.00
19108;BME280;9686;48.832;9.126;2022-08-24T01:17:02;98261.06;;;18.81;100.00
19108;BME280;9686;48.832;9.126;2022-08-24T01:19:49;98268.34;;;18.74;100.00
19108;BME280;9686;48.832;9.126;2022-08-24T01:25:08;98258.31;;;18.59;100.00
19108;BME280;9686;48.832;9.126;2022-08-24T01:27:34;98264.03;;;18.46;100.00
19108;BME280;9686;48.832;9.126;2022-08-24T01:30:03;98258.50;;;18.54;100.00
19108;BME280;9686;48.832;9.126;2022-08-24T01:32:29;98264.91;;;18.47;100.00
19108;BME280;9686;48.832;9.126;2022-08-24T01:34:55;98259.91;;;18.39;100.00
19108;BME280;9686;48.832;9.126;2022-08-24T01:37:21;98270.53;;;18.38;100.00
19108;BME280;9686;48.832;9.126;2022-08-24T01:39:48;98274.03;;;18.38;100.00
19108;BME280;9686;48.832;9.126;2022-08-24T01:42:14;98263.91;;;18.51;100.00
19108;BME280;9686;48.832;9.126;2022-08-24T01:44:41;98270.03;;;18.52;100.00
19108;BME280;9686;48.832;9.126;2022-08-24T01:47:09;98278.03;;;18.50;100.00
19108;BME280;9686;48.832;9.126;2022-08-24T01:49:39;98272.41;;;18.34;100.00
19108;BME280;9686;48.832;9.126;2022-08-24T01:52:07;98281.31;;;18.32;100.00
19108;BME280;9686;48.832;9.126;2022-08-24T01:54:33;98276.03;;;18.32;100.00
19108;BME280;9686;48.832;9.126;2022-08-24T01:56:59;98279.66;;;18.29;100.00
19108;BME280;9686;48.832;9.126;2022-08-24T01:59:24;98280.56;;;18.28;100.00
19108;BME280;9686;48.832;9.126;2022-08-24T02:01:57;98280.28;;;18.36;100.00
19108;BME280;9686;48.832;9.126;2022-08-24T02:04:25;98281.16;;;18.36;100.00
19108;BME280;9686;48.832;9.126;2022-08-24T02:06:51;98277.06;;;18.28;100.00
19108;BME280;9686;48.832;9.126;2022-08-24T02:09:18;98276.09;;;18.30;100.00
19108;BME280;9686;48.832;9.126;2022-08-24T02:11:43;98281.25;;;18.33;100.00
19108;BME280;9686;48.832;9.126;2022-08-24T02:14:08;98278.44;;;18.38;100.00
19108;BME280;9686;48.832;9.126;2022-08-24T02:16:34;98285.34;;;18.42;100.00
19108;BME280;9686;48.832;9.126;2022-08-24T02:19:00;98286.13;;;18.44;100.00
19108;BME280;9686;48.832;9.126;2022-08-24T02:21:26;98282.63;;;18.43;100.00
19108;BME280;9686;48.832;9.126;2022-08-24T02:23:51;98287.97;;;18.42;100.00
19108;BME280;9686;48.832;9.126;2022-08-24T02:26:17;98291.59;;;18.39;100.00
19108;BME280;9686;48.832;9.126;2022-08-24T02:28:42;98284.41;;;18.43;100.00
19108;BME280;9686;48.832;9.126;2022-08-24T02:31:10;98290.63;;;18.42;100.00
19108;BME280;9686;48.832;9.126;2022-08-24T02:33:37;98293.31;;;18.40;100.00
19108;BME280;9686;48.832;9.126;2022-08-24T02:36:04;98289.63;;;18.44;100.00
19108;BME280;9686;48.832;9.126;2022-08-24T02:38:30;98296.63;;;18.45;100.00
19108;BME280;9686;48.832;9.126;2022-08-24T02:40:55;98294.06;;;18.44;100.00
19108;BME280;9686;48.832;9.126;2022-08-24T02:43:22;98286.38;;;18.38;100.00
19108;BME280;9686;48.832;9.126;2022-08-24T02:45:48;98284.06;;;18.29;100.00
19108;BME280;9686;48.832;9.126;2022-08-24T02:48:14;98281.38;;;18.30;100.00
19108;BME280;9686;48.832;9.126;2022-08-24T02:50:41;98285.00;;;18.28;100.00
19108;BME280;9686;48.832;9.126;2022-08-24T02:53:09;98286.75;;;18.27;100.00
19108;BME280;9686;48.832;9.126;2022-08-24T02:55:35;98286.97;;;18.21;100.00
19108;BME280;9686;48.832;9.126;2022-08-24T02:58:00;98281.97;;;18.13;100.00
19108;BME280;9686;48.832;9.126;2022-08-24T03:00:26;98281.03;;;18.14;100.00
19108;BME280;9686;48.832;9.126;2022-08-24T03:02:52;98283.78;;;18.11;100.00
19108;BME280;9686;48.832;9.126;2022-08-24T03:05:18;98283.09;;;18.06;100.00
19108;BME280;9686;48.832;9.126;2022-08-24T03:07:44;98286.66;;;18.05;100.00
19108;BME280;9686;48.832;9.126;2022-08-24T03:10:09;98277.19;;;18.00;100.00
19108;BME280;9686;48.832;9.126;2022-08-24T03:12:35;98275.41;;;18.00;100.00
19108;BME280;9686;48.832;9.126;2022-08-24T03:15:01;98274.59;;;17.98;100.00
19108;BME280;9686;48.832;9.126;2022-08-24T03:17:28;98272.03;;;17.97;100.00
19108;BME280;9686;48.832;9.126;2022-08-24T03:19:58;98269.56;;;17.91;100.00
19108;BME280;9686;48.832;9.126;2022-08-24T03:22:25;98271.34;;;17.90;100.00
19108;BME280;9686;48.832;9.126;2022-08-24T03:24:50;98261.88;;;17.84;100.00
19108;BME280;9686;48.832;9.126;2022-08-24T03:27:16;98262.69;;;17.86;100.00
19108;BME280;9686;48.832;9.126;2022-08-24T03:29:41;98269.84;;;17.83;100.00
19108;BME280;9686;48.832;9.126;2022-08-24T03:32:07;98269.78;;;17.84;100.00
19108;BME280;9686;48.832;9.126;2022-08-24T03:34:33;98278.56;;;17.85;100.00
19108;BME280;9686;48.832;9.126;2022-08-24T03:36:58;98277.00;;;17.79;100.00
19108;BME280;9686;48.832;9.126;2022-08-24T03:39:24;98276.09;;;17.80;100.00
19108;BME280;9686;48.832;9.126;2022-08-24T03:41:49;98277.84;;;17.80;100.00
19108;BME280;9686;48.832;9.126;2022-08-24T03:44:15;98280.38;;;17.83;100.00
19108;BME280;9686;48.832;9.126;2022-08-24T03:46:40;98271.50;;;17.85;100.00
19108;BME280;9686;48.832;9.126;2022-08-24T03:49:07;98274.19;;;17.84;100.00
19108;BME280;9686;48.832;9.126;2022-08-24T03:51:34;98268.28;;;17.77;100.00
19108;BME280;9686;48.832;9.126;2022-08-24T03:54:01;98270.06;;;17.77;100.00
19108;BME280;9686;48.832;9.126;2022-08-24T03:56:27;98271.13;;;17.71;100.00
19108;BME280;9686;48.832;9.126;2022-08-24T03:58:53;98271.22;;;17.67;100.00
19108;BME280;9686;48.832;9.126;2022-08-24T04:01:19;98274.88;;;17.63;100.00
19108;BME280;9686;48.832;9.126;2022-08-24T04:03:46;98274.03;;;17.62;100.00
19108;BME280;9686;48.832;9.126;2022-08-24T04:06:15;98278.47;;;17.60;100.00
19108;BME280;9686;48.832;9.126;2022-08-24T04:08:41;98276.75;;;17.59;100.00
19108;BME280;9686;48.832;9.126;2022-08-24T04:11:14;98278.97;;;17.46;100.00
19108;BME280;9686;48.832;9.126;2022-08-24T04:13:40;98280.81;;;17.43;100.00
19108;BME280;9686;48.832;9.126;2022-08-24T04:16:08;98278.28;;;17.40;100.00
19108;BME280;9686;48.832;9.126;2022-08-24T04:18:34;98281.75;;;17.40;100.00
19108;BME280;9686;48.832;9.126;2022-08-24T04:21:00;98279.13;;;17.40;100.00
19108;BME280;9686;48.832;9.126;2022-08-24T04:23:25;98278.16;;;17.44;100.00
19108;BME280;9686;48.832;9.126;2022-08-24T04:25:51;98282.72;;;17.38;100.00
19108;BME280;9686;48.832;9.126;2022-08-24T04:28:18;98282.88;;;17.33;100.00
19108;BME280;9686;48.832;9.126;2022-08-24T04:30:45;98281.31;;;17.27;100.00
19108;BME280;9686;48.832;9.126;2022-08-24T04:33:14;98291.09;;;17.24;100.00
19108;BME280;9686;48.832;9.126;2022-08-24T04:35:42;98293.94;;;17.18;100.00
19108;BME280;9686;48.832;9.126;2022-08-24T04:38:08;98296.56;;;17.18;100.00
19108;BME280;9686;48.832;9.126;2022-08-24T04:40:34;98292.16;;;17.18;100.00
19108;BME280;9686;48.832;9.126;2022-08-24T04:42:59;98295.75;;;17.14;100.00
19108;BME280;9686;48.832;9.126;2022-08-24T04:45:26;98297.41;;;17.18;100.00
19108;BME280;9686;48.832;9.126;2022-08-24T04:47:52;98303.56;;;17.17;100.00
19108;BME280;9686;48.832;9.126;2022-08-24T04:50:18;98310.53;;;17.20;100.00
19108;BME280;9686;48.832;9.126;2022-08-24T04:52:43;98304.31;;;17.22;100.00
19108;BME280;9686;48.832;9.126;2022-08-24T04:55:09;98305.22;;;17.21;100.00
19108;BME280;9686;48.832;9.126;2022-08-24T04:57:34;98312.16;;;17.24;100.00
19108;BME280;9686;48.832;9.126;2022-08-24T05:00:00;98308.63;;;17.25;100.00
19108;BME280;9686;48.832;9.126;2022-08-24T05:02:27;98306.84;;;17.25;100.00
19108;BME280;9686;48.832;9.126;2022-08-24T05:04:55;98321.69;;;17.28;100.00
19108;BME280;9686;48.832;9.126;2022-08-24T05:07:21;98314.66;;;17.29;100.00
19108;BME280;9686;48.832;9.126;2022-08-24T05:09:46;98320.69;;;17.32;100.00
19108;BME280;9686;48.832;9.126;2022-08-24T05:12:11;98316.06;;;17.39;100.00
19108;BME280;9686;48.832;9.126;2022-08-24T05:14:37;98322.94;;;17.44;100.00
19108;BME280;9686;48.832;9.126;2022-08-24T05:17:02;98321.72;;;17.54;100.00
19108;BME280;9686;48.832;9.126;2022-08-24T05:19:28;98322.38;;;17.61;100.00
19108;BME280;9686;48.832;9.126;2022-08-24T05:21:53;98323.09;;;17.66;100.00
19108;BME280;9686;48.832;9.126;2022-08-24T05:24:18;98321.19;;;17.73;100.00
19108;BME280;9686;48.832;9.126;2022-08-24T05:26:44;98324.34;;;17.82;100.00
19108;BME280;9686;48.832;9.126;2022-08-24T05:29:10;98321.50;;;17.88;100.00
19108;BME280;9686;48.832;9.126;2022-08-24T05:31:36;98315.16;;;17.94;100.00
19108;BME280;9686;48.832;9.126;2022-08-24T05:34:03;98317.50;;;18.03;100.00
19108;BME280;9686;48.832;9.126;2022-08-24T05:36:31;98321.59;;;18.12;100.00
19108;BME280;9686;48.832;9.126;2022-08-24T05:38:59;98320.47;;;18.19;100.00
19108;BME280;9686;48.832;9.126;2022-08-24T05:41:25;98320.22;;;18.27;100.00
19108;BME280;9686;48.832;9.126;2022-08-24T05:43:51;98326.81;;;18.38;100.00
19108;BME280;9686;48.832;9.126;2022-08-24T05:46:16;98319.47;;;18.48;100.00
19108;BME280;9686;48.832;9.126;2022-08-24T05:48:42;98319.28;;;18.53;100.00
19108;BME280;9686;48.832;9.126;2022-08-24T05:51:09;98325.91;;;18.64;100.00
19108;BME280;9686;48.832;9.126;2022-08-24T05:53:36;98319.41;;;18.74;100.00
19108;BME280;9686;48.832;9.126;2022-08-24T05:56:04;98322.44;;;18.87;100.00
19108;BME280;9686;48.832;9.126;2022-08-24T05:58:30;98334.34;;;18.97;100.00
19108;BME280;9686;48.832;9.126;2022-08-24T06:00:55;98323.53;;;19.05;100.00
19108;BME280;9686;48.832;9.126;2022-08-24T06:03:20;98337.84;;;19.21;100.00
19108;BME280;9686;48.832;9.126;2022-08-24T06:05:46;98343.00;;;19.24;100.00
19108;BME280;9686;48.832;9.126;2022-08-24T06:08:12;98349.81;;;19.31;100.00
19108;BME280;9686;48.832;9.126;2022-08-24T06:10:42;98350.97;;;19.46;100.00
19108;BME280;9686;48.832;9.126;2022-08-24T06:13:09;98347.25;;;19.52;100.00
19108;BME280;9686;48.832;9.126;2022-08-24T06:15:37;98347.88;;;19.58;100.00
19108;BME280;9686;48.832;9.126;2022-08-24T06:18:04;98338.91;;;19.62;100.00
19108;BME280;9686;48.832;9.126;2022-08-24T06:20:30;98337.78;;;19.68;100.00
19108;BME280;9686;48.832;9.126;2022-08-24T06:22:55;98334.09;;;19.72;100.00
19108;BME280;9686;48.832;9.126;2022-08-24T06:25:21;98337.38;;;19.79;100.00
19108;BME280;9686;48.832;9.126;2022-08-24T06:28:05;98336.50;;;19.98;100.00
19108;BME280;9686;48.832;9.126;2022-08-24T06:30:30;98337.16;;;20.05;100.00
19108;BME280;9686;48.832;9.126;2022-08-24T06:33:01;98336.22;;;20.06;100.00
19108;BME280;9686;48.832;9.126;2022-08-24T06:35:27;98339.13;;;20.20;100.00
19108;BME280;9686;48.832;9.126;2022-08-24T06:37:52;98330.25;;;20.21;100.00
19108;BME280;9686;48.832;9.126;2022-08-24T06:40:18;98336.31;;;20.45;100.00
19108;BME280;9686;48.832;9.126;2022-08-24T06:42:46;98332.31;;;20.55;100.00
19108;BME280;9686;48.832;9.126;2022-08-24T06:45:12;98339.81;;;20.66;100.00
19108;BME280;9686;48.832;9.126;2022-08-24T06:47:38;98335.88;;;20.75;100.00
19108;BME280;9686;48.832;9.126;2022-08-24T06:50:05;98347.88;;;20.83;100.00
19108;BME280;9686;48.832;9.126;2022-08-24T06:52:30;98342.22;;;20.91;100.00
19108;BME280;9686;48.832;9.126;2022-08-24T06:54:56;98343.50;;;21.01;100.00
19108;BME280;9686;48.832;9.126;2022-08-24T06:57:21;98343.16;;;21.09;100.00
19108;BME280;9686;48.832;9.126;2022-08-24T06:59:46;98343.38;;;21.23;100.00
19108;BME280;9686;48.832;9.126;2022-08-24T07:02:12;98344.03;;;21.28;100.00
19108;BME280;9686;48.832;9.126;2022-08-24T07:04:40;98340.91;;;21.39;100.00
19108;BME280;9686;48.832;9.126;2022-08-24T07:07:06;98343.25;;;21.45;100.00
19108;BME280;9686;48.832;9.126;2022-08-24T07:09:32;98354.72;;;21.64;100.00
19108;BME280;9686;48.832;9.126;2022-08-24T07:11:57;98348.09;;;21.73;100.00
19108;BME280;9686;48.832;9.126;2022-08-24T07:14:23;98352.84;;;21.83;100.00
19108;BME280;9686;48.832;9.126;2022-08-24T07:16:48;98358.34;;;21.98;98.20
19108;BME280;9686;48.832;9.126;2022-08-24T07:19:14;98364.44;;;22.00;98.43
19108;BME280;9686;48.832;9.126;2022-08-24T07:21:39;98358.56;;;22.12;96.02
19108;BME280;9686;48.832;9.126;2022-08-24T07:24:05;98358.94;;;22.22;95.79
19108;BME280;9686;48.832;9.126;2022-08-24T07:26:31;98357.06;;;22.24;93.46
19108;BME280;9686;48.832;9.126;2022-08-24T07:29:03;98363.41;;;22.38;92.36
19108;BME280;9686;48.832;9.126;2022-08-24T07:31:37;98356.69;;;22.49;89.63
19108;BME280;9686;48.832;9.126;2022-08-24T07:34:05;98356.81;;;22.63;88.84
19108;BME280;9686;48.832;9.126;2022-08-24T07:36:32;98361.50;;;22.75;87.32
19108;BME280;9686;48.832;9.126;2022-08-24T07:38:57;98359.22;;;22.85;86.77
19108;BME280;9686;48.832;9.126;2022-08-24T07:41:24;98363.38;;;22.90;80.17
19108;BME280;9686;48.832;9.126;2022-08-24T07:43:51;98367.00;;;23.05;81.65
19108;BME280;9686;48.832;9.126;2022-08-24T07:46:16;98368.75;;;23.22;79.71
19108;BME280;9686;48.832;9.126;2022-08-24T07:48:42;98364.19;;;23.39;77.72
19108;BME280;9686;48.832;9.126;2022-08-24T07:51:09;98363.72;;;23.49;75.26
19108;BME280;9686;48.832;9.126;2022-08-24T07:53:35;98374.63;;;23.60;73.20
19108;BME280;9686;48.832;9.126;2022-08-24T07:56:01;98365.19;;;23.70;72.39
19108;BME280;9686;48.832;9.126;2022-08-24T07:58:26;98372.75;;;23.78;67.90
19108;BME280;9686;48.832;9.126;2022-08-24T08:00:52;98373.69;;;23.77;65.54
19108;BME280;9686;48.832;9.126;2022-08-24T08:03:17;98377.44;;;23.88;67.60
19108;BME280;9686;48.832;9.126;2022-08-24T08:05:43;98373.06;;;24.03;65.20
19108;BME280;9686;48.832;9.126;2022-08-24T08:08:08;98368.94;;;23.97;57.59
19108;BME280;9686;48.832;9.126;2022-08-24T08:10:34;98366.09;;;24.01;57.04
19108;BME280;9686;48.832;9.126;2022-08-24T08:13:01;98371.16;;;24.05;57.14
19108;BME280;9686;48.832;9.126;2022-08-24T08:15:27;98372.41;;;24.14;56.49
19108;BME280;9686;48.832;9.126;2022-08-24T08:17:53;98373.63;;;24.24;56.68
19108;BME280;9686;48.832;9.126;2022-08-24T08:20:19;98377.09;;;24.40;56.18
19108;BME280;9686;48.832;9.126;2022-08-24T08:22:44;98371.25;;;24.49;56.21
19108;BME280;9686;48.832;9.126;2022-08-24T08:25:28;98371.44;;;24.60;55.67
19108;BME280;9686;48.832;9.126;2022-08-24T08:27:53;98368.13;;;24.71;54.89
19108;BME280;9686;48.832;9.126;2022-08-24T08:30:19;98370.91;;;24.84;53.64
19108;BME280;9686;48.832;9.126;2022-08-24T08:32:44;98376.91;;;24.73;51.59
19108;BME280;9686;48.832;9.126;2022-08-24T08:35:10;98366.63;;;24.81;51.00
19108;BME280;9686;48.832;9.126;2022-08-24T08:37:37;98365.28;;;24.88;50.72
19108;BME280;9686;48.832;9.126;2022-08-24T08:40:05;98364.25;;;24.91;50.15
19108;BME280;9686;48.832;9.126;2022-08-24T08:42:59;98359.25;;;25.01;49.62
19108;BME280;9686;48.832;9.126;2022-08-24T08:45:32;98364.28;;;25.05;46.46
19108;BME280;9686;48.832;9.126;2022-08-24T08:56:15;98363.50;;;25.32;45.68
19108;BME280;9686;48.832;9.126;2022-08-24T09:02:21;98354.88;;;25.55;44.47
19108;BME280;9686;48.832;9.126;2022-08-24T09:07:15;98353.72;;;25.73;43.39
19108;BME280;9686;48.832;9.126;2022-08-24T09:16:01;98350.78;;;26.18;42.56
19108;BME280;9686;48.832;9.126;2022-08-24T09:18:58;98352.63;;;26.30;41.48
19108;BME280;9686;48.832;9.126;2022-08-24T09:22:10;98346.16;;;26.47;41.69
19108;BME280;9686;48.832;9.126;2022-08-24T09:30:23;98350.66;;;26.71;40.33
19108;BME280;9686;48.832;9.126;2022-08-24T09:38:17;98348.66;;;27.00;40.95
19108;BME280;9686;48.832;9.126;2022-08-24T09:46:29;98349.41;;;27.15;40.56
19108;BME280;9686;48.832;9.126;2022-08-24T09:52:49;98342.56;;;27.11;40.57
19108;BME280;9686;48.832;9.126;2022-08-24T09:58:33;98338.66;;;27.28;40.54
19108;BME280;9686;48.832;9.126;2022-08-24T10:04:09;98345.44;;;27.57;38.27
19108;BME280;9686;48.832;9.126;2022-08-24T10:13:02;98339.88;;;27.60;39.20
19108;BME280;9686;48.832;9.126;2022-08-24T10:15:45;98339.50;;;27.78;39.50
19108;BME280;9686;48.832;9.126;2022-08-24T10:29:45;98314.88;;;27.97;37.69
19108;BME280;9686;48.832;9.126;2022-08-24T10:32:23;98317.44;;;27.98;38.11
19108;BME280;9686;48.832;9.126;2022-08-24T10:42:42;98312.53;;;28.16;38.19
19108;BME280;9686;48.832;9.126;2022-08-24T10:46:07;98297.66;;;28.23;36.05
19108;BME280;9686;48.832;9.126;2022-08-24T10:48:59;98295.16;;;28.33;35.13
19108;BME280;9686;48.832;9.126;2022-08-24T10:54:19;98296.78;;;28.46;34.82
19108;BME280;9686;48.832;9.126;2022-08-24T10:59:21;98275.22;;;28.59;33.89
19108;BME280;9686;48.832;9.126;2022-08-24T11:02:08;98296.81;;;28.80;34.64
19108;BME280;9686;48.832;9.126;2022-08-24T11:04:35;98290.22;;;28.84;34.43
19108;BME280;9686;48.832;9.126;2022-08-24T11:07:15;98289.16;;;28.86;33.45
19108;BME280;9686;48.832;9.126;2022-08-24T11:14:54;98289.28;;;29.07;32.78
19108;BME280;9686;48.832;9.126;2022-08-24T11:17:23;98294.66;;;29.07;33.06
19108;BME280;9686;48.832;9.126;2022-08-24T11:19:49;98290.28;;;29.17;32.93
19108;BME280;9686;48.832;9.126;2022-08-24T11:22:36;98299.91;;;29.09;32.70
19108;BME280;9686;48.832;9.126;2022-08-24T11:25:19;98284.50;;;29.11;32.79
19108;BME280;9686;48.832;9.126;2022-08-24T11:27:51;98284.78;;;29.19;33.06
19108;BME280;9686;48.832;9.126;2022-08-24T11:30:27;98276.81;;;29.51;32.17
19108;BME280;9686;48.832;9.126;2022-08-24T11:33:02;98277.16;;;29.35;32.12
19108;BME280;9686;48.832;9.126;2022-08-24T11:38:05;98280.94;;;29.55;32.48
19108;BME280;9686;48.832;9.126;2022-08-24T11:40:53;98271.78;;;29.58;32.16
19108;BME280;9686;48.832;9.126;2022-08-24T11:43:29;98267.72;;;29.63;31.71
19108;BME280;9686;48.832;9.126;2022-08-24T11:46:12;98274.59;;;29.88;32.36
19108;BME280;9686;48.832;9.126;2022-08-24T11:51:16;98275.59;;;30.19;32.57
19108;BME280;9686;48.832;9.126;2022-08-24T11:56:48;98270.19;;;30.40;31.35
19108;BME280;9686;48.832;9.126;2022-08-24T11:59:41;98271.13;;;30.50;30.69
19108;BME280;9686;48.832;9.126;2022-08-24T12:14:11;98258.31;;;30.63;31.19
19108;BME280;9686;48.832;9.126;2022-08-24T12:19:43;98254.78;;;30.63;31.24
19108;BME280;9686;48.832;9.126;2022-08-24T12:22:11;98267.22;;;30.43;31.06
19108;BME280;9686;48.832;9.126;2022-08-24T12:24:43;98265.91;;;30.17;31.60
19108;BME280;9686;48.832;9.126;2022-08-24T12:27:19;98264.09;;;29.85;32.22
19108;BME280;9686;48.832;9.126;2022-08-24T12:32:30;98255.81;;;29.77;33.59
19108;BME280;9686;48.832;9.126;2022-08-24T12:35:27;98252.56;;;29.73;33.21
19108;BME280;9686;48.832;9.126;2022-08-24T12:38:02;98250.59;;;29.64;32.47
19108;BME280;9686;48.832;9.126;2022-08-24T12:40:42;98248.78;;;29.65;32.33
19108;BME280;9686;48.832;9.126;2022-08-24T12:43:18;98241.91;;;29.29;32.96
19108;BME280;9686;48.832;9.126;2022-08-24T12:45:45;98245.53;;;29.39;31.84
19108;BME280;9686;48.832;9.126;2022-08-24T12:59:05;98234.44;;;30.07;30.57
19108;BME280;9686;48.832;9.126;2022-08-24T13:01:34;98244.03;;;30.21;29.64
19108;BME280;9686;48.832;9.126;2022-08-24T13:04:10;98243.22;;;30.10;29.92
19108;BME280;9686;48.832;9.126;2022-08-24T13:09:10;98238.47;;;30.44;30.27
19108;BME280;9686;48.832;9.126;2022-08-24T13:11:38;98241.56;;;30.60;30.15
19108;BME280;9686;48.832;9.126;2022-08-24T13:14:20;98237.84;;;30.72;30.62
19108;BME280;9686;48.832;9.126;2022-08-24T13:21:50;98240.97;;;30.56;30.51
19108;BME280;9686;48.832;9.126;2022-08-24T13:29:37;98227.38;;;30.79;30.29
19108;BME280;9686;48.832;9.126;2022-08-24T13:32:04;98228.38;;;30.57;30.24
19108;BME280;9686;48.832;9.126;2022-08-24T13:34:42;98226.53;;;30.57;30.08
19108;BME280;9686;48.832;9.126;2022-08-24T13:37:13;98217.56;;;30.47;29.95
19108;BME280;9686;48.832;9.126;2022-08-24T13:40:05;98214.22;;;30.34;30.38
19108;BME280;9686;48.832;9.126;2022-08-24T13:59:08;98213.34;;;30.03;31.75
19108;BME280;9686;48.832;9.126;2022-08-24T14:06:57;98208.84;;;30.13;32.00
19108;BME280;9686;48.832;9.126;2022-08-24T14:09:35;98200.28;;;30.19;30.85
19108;BME280;9686;48.832;9.126;2022-08-24T14:14:50;98205.03;;;29.95;31.47
19108;BME280;9686;48.832;9.126;2022-08-24T14:22:50;98206.03;;;29.94;30.80
19108;BME280;9686;48.832;9.126;2022-08-24T14:25:26;98196.72;;;29.98;30.76
19108;BME280;9686;48.832;9.126;2022-08-24T14:35:55;98198.38;;;30.10;31.60
19108;BME280;9686;48.832;9.126;2022-08-24T14:41:42;98185.03;;;30.90;30.34
19108;BME280;9686;48.832;9.126;2022-08-24T14:44:20;98184.09;;;30.71;30.52
19108;BME280;9686;48.832;9.126;2022-08-24T14:50:08;98177.38;;;30.55;31.57
19108;BME280;9686;48.832;9.126;2022-08-24T14:55:11;98172.97;;;30.54;31.23
19108;BME280;9686;48.832;9.126;2022-08-24T15:03:52;98172.63;;;30.38;31.88
19108;BME280;9686;48.832;9.126;2022-08-24T15:06:28;98171.59;;;30.08;32.35
19108;BME280;9686;48.832;9.126;2022-08-24T15:09:08;98173.59;;;30.06;33.34
19108;BME280;9686;48.832;9.126;2022-08-24T15:11:36;98170.81;;;30.18;33.95
19108;BME280;9686;48.832;9.126;2022-08-24T15:14:20;98169.38;;;30.14;33.08
19108;BME280;9686;48.832;9.126;2022-08-24T15:16:52;98171.56;;;29.88;33.43
19108;BME280;9686;48.832;9.126;2022-08-24T15:22:11;98164.25;;;30.11;33.30
19108;BME280;9686;48.832;9.126;2022-08-24T15:24:44;98161.69;;;30.09;33.06
19108;BME280;9686;48.832;9.126;2022-08-24T15:28:05;98160.13;;;30.27;33.36
19108;BME280;9686;48.832;9.126;2022-08-24T15:30:15;98166.03;;;30.52;32.79
19108;BME280;9686;48.832;9.126;2022-08-24T15:32:45;98162.47;;;30.82;33.61
19108;BME280;9686;48.832;9.126;2022-08-24T15:35:23;98153.75;;;30.99;34.13
19108;BME280;9686;48.832;9.126;2022-08-24T15:37:49;98163.38;;;31.02;33.91
19108;BME280;9686;48.832;9.126;2022-08-24T15:40:21;98162.47;;;30.72;33.81
19108;BME280;9686;48.832;9.126;2022-08-24T15:42:48;98163.91;;;30.55;33.75
19108;BME280;9686;48.832;9.126;2022-08-24T15:45:15;98159.59;;;30.64;34.05
19108;BME280;9686;48.832;9.126;2022-08-24T15:47:45;98161.78;;;30.89;34.56
19108;BME280;9686;48.832;9.126;2022-08-24T15:50:26;98159.09;;;30.89;35.43
19108;BME280;9686;48.832;9.126;2022-08-24T15:55:42;98160.09;;;30.58;36.27
19108;BME280;9686;48.832;9.126;2022-08-24T15:58:12;98170.44;;;30.53;37.25
19108;BME280;9686;48.832;9.126;2022-08-24T16:00:38;98169.94;;;30.38;36.46
19108;BME280;9686;48.832;9.126;2022-08-24T16:06:45;98163.56;;;30.39;37.51
19108;BME280;9686;48.832;9.126;2022-08-24T16:11:59;98165.13;;;30.42;37.34
19108;BME280;9686;48.832;9.126;2022-08-24T16:14:41;98163.78;;;30.26;37.77
19108;BME280;9686;48.832;9.126;2022-08-24T16:20:00;98165.66;;;30.05;39.04
19108;BME280;9686;48.832;9.126;2022-08-24T16:22:32;98165.81;;;29.92;39.82
19108;BME280;9686;48.832;9.126;2022-08-24T16:30:57;98160.81;;;29.88;39.90
19108;BME280;9686;48.832;9.126;2022-08-24T16:33:44;98171.06;;;29.94;40.21
19108;BME280;9686;48.832;9.126;2022-08-24T16:36:16;98171.06;;;29.94;40.13
19108;BME280;9686;48.832;9.126;2022-08-24T16:38:47;98164.31;;;29.78;39.85
19108;BME280;9686;48.832;9.126;2022-08-24T16:41:16;98167.41;;;29.74;40.16
19108;BME280;9686;48.832;9.126;2022-08-24T16:43:43;98172.44;;;29.67;39.45
19108;BME280;9686;48.832;9.126;2022-08-24T16:46:10;98170.13;;;29.63;40.00